Tug Brendan J Bouchard — WCZ5207 — position and weather

sailwx.info

Track history (hours):
 
Tides and Currents Weather Stations Pressure Air Temp Water Temp Dewpoint Dewpoint Depression Visibility Wind Speed Wind Dir Waves Ship Positions

Tug Brendan J Bouchard

Owner: TUG BRENDAN J BOUCHARD CORP, MELVILLE, NY. More information available from US FCC via Universal Licensing System and Coast Guard Vessel Documentation Center.

Last reported at 2018-Feb-18 02:55 UTC. Time now 2018-Feb-18 18:24 UTC.
Position N 36°51' W 075°53'.

Length 163 m; draft 7.5 m.

Type: Tug. MMSI: 338631000.

Date/timePositionNaut miles runAvg speedWind from/ knotsBaromVisibWave heightAir tempDewpointWater temp
2018-Feb-18 02:55N 36°51' W 075°53'410.2
2018-Feb-18 02:30N 36°54' W 075°55'5 9.4
2018-Feb-18 02:00N 36°57' W 076°01'8 9.7
2018-Feb-18 01:13N 36°59' W 076°09'310.0
2018-Feb-18 00:57N 36°60' W 076°13'5 9.4
2018-Feb-18 00:27N 36°60' W 076°19'4 9.2
2018-Feb-18 00:00N 36°57' W 076°23'2 2.6
2018-Feb-17 23:22N 36°58' W 076°25'0 0.0
2018-Feb-16 21:45N 36°58' W 076°25'0 0.0
2018-Feb-16 21:15N 36°58' W 076°25'0 0.0
2018-Feb-16 20:54N 36°58' W 076°25'0 0.0
2018-Feb-16 20:24N 36°58' W 076°25'0 0.0
2018-Feb-16 19:57N 36°58' W 076°25'0 0.0
2018-Feb-16 10:33N 36°58' W 076°25'0 0.0
2018-Feb-15 23:10N 36°58' W 076°25'0 0.0
2018-Feb-15 22:58N 36°58' W 076°25'0 0.3
2018-Feb-15 22:26N 36°58' W 076°25'0 0.8
2018-Feb-15 21:56N 36°57' W 076°25'0 0.0
2018-Feb-15 21:28N 36°57' W 076°25'0 0.0
2018-Feb-15 20:58N 36°57' W 076°25'0 0.0
2018-Feb-15 20:28N 36°57' W 076°25'0 0.0
2018-Feb-15 19:55N 36°57' W 076°25'0 0.0
2018-Feb-15 19:25N 36°57' W 076°25'0 0.0
2018-Feb-15 18:55N 36°57' W 076°25'0 0.0
2018-Feb-15 18:25N 36°57' W 076°25'0 0.0
2018-Feb-15 17:58N 36°57' W 076°25'0 0.0
2018-Feb-15 17:25N 36°57' W 076°25'0 0.1
2018-Feb-15 16:55N 36°57' W 076°25'0 0.6
2018-Feb-15 16:28N 36°57' W 076°25'4 7.0
2018-Feb-15 15:57N 36°58' W 076°21'4 7.6
2018-Feb-15 15:27N 37°00' W 076°17'4 7.5
2018-Feb-15 14:57N 36°60' W 076°12'4 8.4
2018-Feb-15 14:27N 36°59' W 076°07'4 8.4
2018-Feb-15 14:00N 36°58' W 076°03'4 8.4
2018-Feb-15 13:30N 36°57' W 075°58'4 7.9
2018-Feb-15 13:00N 36°54' W 075°54'  
2018-Feb-12 07:37N 27°01' W 079°54'114.0
2018-Feb-12 07:30N 26°59' W 079°54'4213.2
2018-Feb-12 04:19N 26°18' W 079°59'413.0
2018-Feb-12 04:00N 26°13' W 080°00'713.1
2018-Feb-12 03:30N 26°07' W 080°01'713.4
2018-Feb-12 03:00N 26°00' W 080°02'713.4
2018-Feb-12 02:30N 25°54' W 080°02'713.8
2018-Feb-12 02:00N 25°47' W 080°01'714.0
2018-Feb-12 01:30N 25°40' W 080°01'714.0
2018-Feb-12 01:00N 25°33' W 080°00'713.7
2018-Feb-12 00:29N 25°26' W 080°00'  
Track history (hours):
 
Tides and Currents Weather Stations Pressure Air Temp Water Temp Dewpoint Dewpoint Depression Visibility Wind Speed Wind Dir Waves Ship Positions

Tug Brendan J Bouchard

Owner: TUG BRENDAN J BOUCHARD CORP, MELVILLE, NY. More information available from US FCC via Universal Licensing System and Coast Guard Vessel Documentation Center.

Last reported at 2018-Feb-18 02:55 UTC. Time now 2018-Feb-18 18:24 UTC.
Position N 36°51' W 075°53'.

Length 163 m; draft 7.5 m.

Type: Tug. MMSI: 338631000.

Date/timePositionNaut miles runAvg speedWind from/ knotsBaromVisibWave heightAir tempDewpointWater temp
2018-Feb-18 02:55N 36°51' W 075°53'410.2
2018-Feb-18 02:30N 36°54' W 075°55'5 9.4
2018-Feb-18 02:00N 36°57' W 076°01'8 9.7
2018-Feb-18 01:13N 36°59' W 076°09'310.0
2018-Feb-18 00:57N 36°60' W 076°13'5 9.4
2018-Feb-18 00:27N 36°60' W 076°19'4 9.2
2018-Feb-18 00:00N 36°57' W 076°23'2 2.6
2018-Feb-17 23:22N 36°58' W 076°25'0 0.0
2018-Feb-16 21:45N 36°58' W 076°25'0 0.0
2018-Feb-16 21:15N 36°58' W 076°25'0 0.0
2018-Feb-16 20:54N 36°58' W 076°25'0 0.0
2018-Feb-16 20:24N 36°58' W 076°25'0 0.0
2018-Feb-16 19:57N 36°58' W 076°25'0 0.0
2018-Feb-16 10:33N 36°58' W 076°25'0 0.0
2018-Feb-15 23:10N 36°58' W 076°25'0 0.0
2018-Feb-15 22:58N 36°58' W 076°25'0 0.3
2018-Feb-15 22:26N 36°58' W 076°25'0 0.8
2018-Feb-15 21:56N 36°57' W 076°25'0 0.0
2018-Feb-15 21:28N 36°57' W 076°25'0 0.0
2018-Feb-15 20:58N 36°57' W 076°25'0 0.0
2018-Feb-15 20:28N 36°57' W 076°25'0 0.0
2018-Feb-15 19:55N 36°57' W 076°25'0 0.0
2018-Feb-15 19:25N 36°57' W 076°25'0 0.0
2018-Feb-15 18:55N 36°57' W 076°25'0 0.0
2018-Feb-15 18:25N 36°57' W 076°25'0 0.0
2018-Feb-15 17:58N 36°57' W 076°25'0 0.0
2018-Feb-15 17:25N 36°57' W 076°25'0 0.1
2018-Feb-15 16:55N 36°57' W 076°25'0 0.6
2018-Feb-15 16:28N 36°57' W 076°25'4 7.0
2018-Feb-15 15:57N 36°58' W 076°21'4 7.6
2018-Feb-15 15:27N 37°00' W 076°17'4 7.5
2018-Feb-15 14:57N 36°60' W 076°12'4 8.4
2018-Feb-15 14:27N 36°59' W 076°07'4 8.4
2018-Feb-15 14:00N 36°58' W 076°03'4 8.4
2018-Feb-15 13:30N 36°57' W 075°58'4 7.9
2018-Feb-15 13:00N 36°54' W 075°54'  
2018-Feb-12 07:37N 27°01' W 079°54'114.0
2018-Feb-12 07:30N 26°59' W 079°54'4213.2
2018-Feb-12 04:19N 26°18' W 079°59'413.0
2018-Feb-12 04:00N 26°13' W 080°00'713.1
2018-Feb-12 03:30N 26°07' W 080°01'713.4
2018-Feb-12 03:00N 26°00' W 080°02'713.4
2018-Feb-12 02:30N 25°54' W 080°02'713.8
2018-Feb-12 02:00N 25°47' W 080°01'714.0
2018-Feb-12 01:30N 25°40' W 080°01'714.0
2018-Feb-12 01:00N 25°33' W 080°00'713.7
2018-Feb-12 00:29N 25°26' W 080°00'  

Dump ship's entire track history